Time;durP1;ratioP1;P1;durP2;ratioP2;P2;SDS_P1;SDS_P2;PMS_P1;PMS_P2;Temp;Humidity;BMP_temperature;BMP_pressure;BME280_temperature;BME280_humidity;BME280_pressure;Samples;Min_cycle;Max_cycle;Signal;HPM_P1;HPM_P2
2022/05/04 00:01:52;;;;;;;;;;;;;;;11.27;58.82;100883.91;6236793;23;19916;-90
2022/05/04 00:04:41;;;;;;;;;;;;;;;11.16;59.30;100885.84;6231713;23;19923;-90
2022/05/04 00:07:09;;;;;;;;;;;;;;;11.22;59.24;100887.06;6256282;22;19930;-93
2022/05/04 00:09:36;;;;;;;;;;;;;;;11.17;59.39;100886.69;6229363;23;20005;-91
2022/05/04 00:12:14;;;;;;;;;;;;;;;11.23;59.35;100887.91;6233101;23;19924;-96
2022/05/04 00:14:58;;;;;;;;;;;;;;;11.26;59.23;100891.13;6234026;22;19904;-92
2022/05/04 00:17:25;;;;;;;;;;;;;;;11.29;59.18;100896.19;6244483;22;19945;-90
2022/05/04 00:20:06;;;;;;;;;;;;;;;11.32;59.39;100889.63;6270030;22;20030;-93
2022/05/04 00:22:44;;;;;;;;;;;;;;;11.16;59.68;100887.69;6234061;23;19923;-96
2022/05/04 00:25:16;;;;;;;;;;;;;;;11.18;59.54;100891.06;6196456;23;19981;-95
2022/05/04 00:28:11;;;;;;;;;;;;;;;11.06;60.00;100900.41;6274950;22;19903;-88
2022/05/04 00:30:55;;;;;;;;;;;;;;;11.19;59.88;100896.31;6203734;23;19920;-94
2022/05/04 00:33:24;;;;;;;;;;;;;;;11.19;60.34;100893.63;6179793;23;19908;-92
2022/05/04 00:35:49;;;;;;;;;;;;;;;11.13;60.15;100905.00;6208593;23;19915;-95
2022/05/04 00:38:34;;;;;;;;;;;;;;;11.15;60.25;100897.63;6173332;22;19913;-96
2022/05/04 00:41:26;;;;;;;;;;;;;;;11.12;60.42;100897.94;6186641;23;19940;-91
2022/05/04 00:43:58;;;;;;;;;;;;;;;11.00;60.84;100899.19;6207472;22;19930;-94
2022/05/04 00:46:25;;;;;;;;;;;;;;;11.13;60.60;100899.63;6200820;23;19936;-96
2022/05/04 00:49:07;;;;;;;;;;;;;;;11.14;60.45;100895.94;6199653;23;19920;-96
2022/05/04 00:51:50;;;;;;;;;;;;;;;11.10;60.66;100897.25;6205779;22;19917;-95
2022/05/04 00:54:33;;;;;;;;;;;;;;;11.14;60.57;100901.31;6220762;22;19936;-94
2022/05/04 00:57:04;;;;;;;;;;;;;;;11.17;60.39;100895.63;6211059;23;19927;-92
2022/05/04 01:02:10;;;;;;;;;;;;;;;11.19;60.22;100896.31;6221144;22;19928;-94
2022/05/04 01:04:51;;;;;;;;;;;;;;;11.12;60.33;100897.94;6177879;22;20386;-90
2022/05/04 01:07:26;;;;;;;;;;;;;;;11.08;60.47;100901.94;6167534;22;19908;-95
2022/05/04 01:09:53;;;;;;;;;;;;;;;10.94;60.71;100899.84;6204275;22;19928;-95
2022/05/04 01:12:22;;;;;;;;;;;;;;;11.07;60.24;100889.47;6216272;22;19964;-90
2022/05/04 01:14:48;;;;;;;;;;;;;;;11.10;60.04;100891.88;6215596;23;20079;-93
2022/05/04 01:17:19;;;;;;;;;;;;;;;11.06;60.25;100885.13;6225497;22;19951;-94
2022/05/04 01:19:46;;;;;;;;;;;;;;;11.02;60.30;100883.72;6214855;22;19908;-90
2022/05/04 01:22:20;;;;;;;;;;;;;;;11.02;60.12;100885.59;6229448;22;20046;-94
2022/05/04 01:24:53;;;;;;;;;;;;;;;11.05;60.12;100893.34;6221580;23;19964;-95
2022/05/04 01:28:01;;;;;;;;;;;;;;;11.08;59.82;100888.50;6226615;23;19959;-92
2022/05/04 01:30:32;;;;;;;;;;;;;;;11.01;59.73;100894.69;6262013;22;19984;-93
2022/05/04 01:33:00;;;;;;;;;;;;;;;10.99;59.89;100900.19;6194388;22;19919;-94
2022/05/04 01:35:26;;;;;;;;;;;;;;;10.83;60.17;100892.84;6212366;23;19920;-95
2022/05/04 01:37:56;;;;;;;;;;;;;;;11.04;60.31;100892.50;6217606;23;19912;-95
2022/05/04 01:40:27;;;;;;;;;;;;;;;11.00;59.87;100893.81;6185385;22;19999;-94
2022/05/04 01:43:07;;;;;;;;;;;;;;;10.86;60.28;100897.06;6188311;23;19927;-94
2022/05/04 01:45:36;;;;;;;;;;;;;;;10.92;59.96;100899.16;6212220;22;19916;-93
2022/05/04 01:48:07;;;;;;;;;;;;;;;10.87;59.87;100904.16;6214280;23;20336;-94
2022/05/04 01:50:37;;;;;;;;;;;;;;;10.88;59.70;100908.53;6191384;22;19916;-94
2022/05/04 01:53:21;;;;;;;;;;;;;;;11.09;59.37;100909.00;6210371;22;19959;-94
2022/05/04 01:56:08;;;;;;;;;;;;;;;11.09;59.02;100906.31;6210490;23;19919;-94
2022/05/04 01:58:45;;;;;;;;;;;;;;;11.10;58.87;100909.88;6213705;23;20228;-93
2022/05/04 02:01:13;;;;;;;;;;;;;;;11.21;58.49;100912.28;6211359;23;19982;-94
2022/05/04 02:03:40;;;;;;;;;;;;;;;11.24;58.26;100909.28;6212927;23;19912;-94
2022/05/04 02:06:07;;;;;;;;;;;;;;;11.17;58.49;100917.16;6216930;23;19916;-94
2022/05/04 02:08:37;;;;;;;;;;;;;;;11.22;58.16;100915.84;6212903;23;19912;-95
2022/05/04 02:11:03;;;;;;;;;;;;;;;11.18;58.12;100916.13;6195802;22;19920;-94
2022/05/04 02:13:28;;;;;;;;;;;;;;;11.15;58.34;100913.75;6212314;22;19940;-91
2022/05/04 02:15:55;;;;;;;;;;;;;;;11.17;58.12;100927.06;6211455;23;19920;-92
2022/05/04 02:18:20;;;;;;;;;;;;;;;11.17;58.04;100922.53;6209856;23;20569;-93
2022/05/04 02:20:46;;;;;;;;;;;;;;;11.17;57.92;100927.06;6192548;22;19916;-90
2022/05/04 02:23:14;;;;;;;;;;;;;;;11.18;57.72;100917.97;6216073;22;19927;-95
2022/05/04 02:25:47;;;;;;;;;;;;;;;11.18;57.81;100926.06;6223741;22;19956;-92
2022/05/04 02:28:14;;;;;;;;;;;;;;;11.09;57.99;100927.84;6225221;23;19944;-91
2022/05/04 02:30:49;;;;;;;;;;;;;;;11.15;57.76;100929.06;6208925;22;19950;-90
2022/05/04 02:33:16;;;;;;;;;;;;;;;11.02;58.03;100928.63;6209071;22;19911;-93
2022/05/04 02:38:25;;;;;;;;;;;;;;;10.85;58.49;100933.06;6208685;23;19982;-91
2022/05/04 02:40:50;;;;;;;;;;;;;;;10.89;58.43;100931.75;6224375;22;19916;-91
2022/05/04 02:43:20;;;;;;;;;;;;;;;10.96;58.03;100936.34;6193114;23;19995;-90
2022/05/04 02:45:47;;;;;;;;;;;;;;;10.88;58.49;100938.09;6209418;22;19916;-91
2022/05/04 02:48:12;;;;;;;;;;;;;;;10.91;58.17;100949.41;6209734;22;20417;-91
2022/05/04 02:50:41;;;;;;;;;;;;;;;10.92;58.08;100944.88;6206415;23;19927;-91
2022/05/04 02:53:06;;;;;;;;;;;;;;;10.93;57.76;100938.47;6212727;23;19912;-91
2022/05/04 02:55:32;;;;;;;;;;;;;;;10.94;57.74;100943.72;6209623;23;19935;-90
2022/05/04 02:58:01;;;;;;;;;;;;;;;10.75;58.38;100942.06;6184068;22;19915;-90
2022/05/04 03:00:29;;;;;;;;;;;;;;;10.65;58.56;100945.81;6211991;23;19912;-90
2022/05/04 03:02:55;;;;;;;;;;;;;;;10.73;58.41;100951.28;6210250;22;19923;-90
2022/05/04 03:05:32;;;;;;;;;;;;;;;10.74;58.34;100948.41;6206619;22;19952;-89
2022/05/04 03:08:00;;;;;;;;;;;;;;;10.74;58.24;100943.03;6209236;22;19986;-88
2022/05/04 03:10:27;;;;;;;;;;;;;;;10.73;58.42;100945.91;6206934;23;19990;-90
2022/05/04 03:12:56;;;;;;;;;;;;;;;10.82;58.05;100952.19;6206441;22;20259;-90
2022/05/04 03:15:21;;;;;;;;;;;;;;;10.87;57.96;100950.72;6210483;23;19920;-90
2022/05/04 03:17:47;;;;;;;;;;;;;;;10.91;57.88;100960.19;6208388;23;19997;-91
2022/05/04 03:20:14;;;;;;;;;;;;;;;10.85;58.30;100955.41;6212237;23;19915;-89
2022/05/04 03:22:40;;;;;;;;;;;;;;;10.96;57.84;100965.09;6220578;22;20339;-90
2022/05/04 03:25:09;;;;;;;;;;;;;;;10.82;58.33;100965.66;6221013;22;19936;-90
2022/05/04 03:27:35;;;;;;;;;;;;;;;10.98;57.93;100972.00;6212084;23;20253;-91
2022/05/04 03:30:03;;;;;;;;;;;;;;;11.09;57.61;100970.88;6209084;23;19927;-90
2022/05/04 03:32:30;;;;;;;;;;;;;;;11.10;57.72;100975.28;6195855;22;19933;-90
2022/05/04 03:34:57;;;;;;;;;;;;;;;11.18;57.55;100978.03;6218048;23;19935;-91
2022/05/04 03:37:24;;;;;;;;;;;;;;;11.11;57.81;100982.34;6182873;22;19983;-90
2022/05/04 03:39:51;;;;;;;;;;;;;;;11.23;57.35;100979.41;6206278;23;19919;-90
2022/05/04 03:42:16;;;;;;;;;;;;;;;11.29;57.22;100984.16;6211288;23;19916;-90
2022/05/04 03:44:42;;;;;;;;;;;;;;;11.33;57.14;100981.00;6206804;23;20332;-90
2022/05/04 03:47:13;;;;;;;;;;;;;;;11.50;56.64;100990.03;6209743;23;19919;-90
2022/05/04 03:49:39;;;;;;;;;;;;;;;11.51;56.68;100983.63;6219203;23;19908;-88
2022/05/04 03:52:10;;;;;;;;;;;;;;;11.51;56.99;100991.69;6211170;23;20307;-89
2022/05/04 03:54:36;;;;;;;;;;;;;;;11.55;57.67;100986.84;6206510;22;19916;-92
2022/05/04 03:57:02;;;;;;;;;;;;;;;11.65;57.90;101002.91;6211423;22;19916;-91
2022/05/04 03:59:30;;;;;;;;;;;;;;;11.49;59.07;101001.78;6207619;22;19919;-91
2022/05/04 04:01:55;;;;;;;;;;;;;;;11.54;59.21;101004.00;6224421;23;19935;-91
2022/05/04 04:04:21;;;;;;;;;;;;;;;11.41;59.81;101007.13;6199628;22;19916;-91
2022/05/04 04:06:51;;;;;;;;;;;;;;;11.38;59.96;101002.91;6182941;22;20052;-89
2022/05/04 04:09:29;;;;;;;;;;;;;;;11.45;60.13;101011.19;6207496;23;19916;-91
2022/05/04 04:11:55;;;;;;;;;;;;;;;11.69;59.45;101012.34;6212396;22;20410;-91
2022/05/04 04:14:21;;;;;;;;;;;;;;;11.69;59.41;101012.34;6205606;23;19998;-91
2022/05/04 04:16:49;;;;;;;;;;;;;;;11.58;59.49;101005.38;6207514;23;19912;-91
2022/05/04 04:19:17;;;;;;;;;;;;;;;11.82;58.99;101012.75;6208985;23;19919;-90
2022/05/04 04:21:58;;;;;;;;;;;;;;;11.86;59.19;101019.50;6210587;22;19916;-90
2022/05/04 04:24:27;;;;;;;;;;;;;;;11.89;59.05;101018.38;6196707;23;20681;-89
2022/05/04 04:26:53;;;;;;;;;;;;;;;11.90;59.48;101015.53;6159814;23;20350;-88
2022/05/04 04:29:20;;;;;;;;;;;;;;;12.08;59.17;101011.88;6175331;23;19912;-89
2022/05/04 04:31:46;;;;;;;;;;;;;;;12.07;59.41;101021.00;6187014;23;19916;-91
2022/05/04 04:34:11;;;;;;;;;;;;;;;12.11;59.36;101017.81;6199502;23;19910;-87
2022/05/04 04:36:38;;;;;;;;;;;;;;;11.89;59.83;101012.97;6215144;23;20462;-89
2022/05/04 04:39:06;;;;;;;;;;;;;;;11.94;59.85;101016.03;6168754;23;19901;-89
2022/05/04 04:41:32;;;;;;;;;;;;;;;11.73;60.67;101019.09;6196559;23;19920;-89
2022/05/04 04:43:59;;;;;;;;;;;;;;;11.71;60.70;101021.97;6181316;23;19908;-86
2022/05/04 04:46:24;;;;;;;;;;;;;;;12.02;60.18;101026.88;6180830;23;20255;-90
2022/05/04 04:48:51;;;;;;;;;;;;;;;12.07;59.47;101015.59;6179949;23;19983;-91
2022/05/04 04:51:18;;;;;;;;;;;;;;;11.89;59.91;101024.59;6181135;23;19919;-92
2022/05/04 04:53:43;;;;;;;;;;;;;;;12.00;59.87;101026.19;6178183;23;19923;-85
2022/05/04 04:56:09;;;;;;;;;;;;;;;12.27;59.22;101026.94;6175603;23;19916;-84
2022/05/04 04:58:40;;;;;;;;;;;;;;;12.40;58.55;101027.34;6153872;23;19912;-85
2022/05/04 05:01:10;;;;;;;;;;;;;;;12.31;58.37;101021.06;6178367;23;20413;-84
2022/05/04 05:03:35;;;;;;;;;;;;;;;12.57;57.91;101022.81;6174261;23;19965;-85
2022/05/04 05:06:02;;;;;;;;;;;;;;;12.94;56.89;101029.63;6182182;23;19917;-84
2022/05/04 05:08:30;;;;;;;;;;;;;;;13.25;55.97;101033.38;6177864;23;19913;-84
2022/05/04 05:10:55;;;;;;;;;;;;;;;13.49;55.08;101039.78;6176839;23;19923;-81
2022/05/04 05:13:20;;;;;;;;;;;;;;;14.00;55.02;101028.69;6174839;23;19912;-83
2022/05/04 05:18:32;;;;;;;;;;;;;;;15.11;50.76;101027.56;6177204;23;19938;-84
2022/05/04 05:20:58;;;;;;;;;;;;;;;15.32;50.67;101022.31;6178713;23;19912;-84
2022/05/04 05:23:24;;;;;;;;;;;;;;;15.09;50.23;101022.34;6177907;23;19912;-84
2022/05/04 05:25:54;;;;;;;;;;;;;;;15.27;50.03;101022.03;6184785;23;20020;-84
2022/05/04 05:28:19;;;;;;;;;;;;;;;15.19;49.88;101027.50;6158912;23;20024;-86
2022/05/04 05:30:46;;;;;;;;;;;;;;;15.26;49.61;101028.44;6180784;23;19931;-84
2022/05/04 05:33:12;;;;;;;;;;;;;;;15.30;48.88;101027.06;6178131;23;19939;-84
2022/05/04 05:35:50;;;;;;;;;;;;;;;15.36;47.77;101031.75;6154219;23;19947;-88
2022/05/04 05:38:15;;;;;;;;;;;;;;;15.35;47.77;101029.22;6180137;23;20325;-82
2022/05/04 05:40:44;;;;;;;;;;;;;;;15.61;47.08;101026.91;6177548;23;19912;-83
2022/05/04 05:43:09;;;;;;;;;;;;;;;15.74;47.16;101029.03;6178748;23;19928;-84
2022/05/04 05:45:36;;;;;;;;;;;;;;;15.66;48.35;101033.66;6177110;23;20013;-82
2022/05/04 05:48:04;;;;;;;;;;;;;;;15.67;48.58;101032.66;6152286;23;20398;-83
2022/05/04 05:50:30;;;;;;;;;;;;;;;15.43;48.86;101041.84;6178038;23;19966;-83
2022/05/04 05:52:56;;;;;;;;;;;;;;;15.14;49.34;101041.56;6179211;23;20007;-83
2022/05/04 05:55:23;;;;;;;;;;;;;;;15.11;49.95;101030.28;6179011;23;19951;-82
2022/05/04 05:57:53;;;;;;;;;;;;;;;15.20;49.85;101038.16;6176166;23;19965;-83
2022/05/04 06:00:20;;;;;;;;;;;;;;;15.58;49.34;101037.31;6174958;23;20234;-83
2022/05/04 06:02:45;;;;;;;;;;;;;;;16.16;47.54;101035.69;6177485;23;19920;-84
2022/05/04 06:05:11;;;;;;;;;;;;;;;17.07;46.18;101046.16;6178446;23;19994;-83
2022/05/04 06:07:38;;;;;;;;;;;;;;;17.82;43.73;101041.13;6177227;23;19940;-83
2022/05/04 06:10:06;;;;;;;;;;;;;;;18.53;42.29;101033.50;6152213;23;19912;-84
2022/05/04 06:12:33;;;;;;;;;;;;;;;18.97;40.80;101028.63;6178890;23;19916;-84
2022/05/04 06:15:02;;;;;;;;;;;;;;;19.28;37.36;101032.63;6178443;23;19920;-83
2022/05/04 06:17:31;;;;;;;;;;;;;;;19.73;36.40;101027.38;6173190;23;19940;-83
2022/05/04 06:19:59;;;;;;;;;;;;;;;20.29;34.90;101025.97;6178942;23;19966;-83
2022/05/04 06:22:25;;;;;;;;;;;;;;;21.16;33.25;101029.88;6179192;23;19936;-83
2022/05/04 06:24:50;;;;;;;;;;;;;;;21.82;32.72;101027.63;6178705;23;20329;-83
2022/05/04 06:27:17;;;;;;;;;;;;;;;22.10;31.04;101027.97;6204486;23;19919;-82
2022/05/04 06:35:11;;;;;;;;;;;;;;;23.73;28.83;101025.16;6178719;23;19923;-85
2022/05/04 06:37:39;;;;;;;;;;;;;;;24.30;27.91;101037.41;6182425;23;19920;-84
2022/05/04 06:40:09;;;;;;;;;;;;;;;24.16;26.68;101034.09;6159121;23;19916;-84
2022/05/04 06:42:35;;;;;;;;;;;;;;;24.26;26.84;101034.31;6179050;23;19912;-81
2022/05/04 06:45:02;;;;;;;;;;;;;;;24.38;26.45;101032.38;6202156;23;19928;-83
2022/05/04 06:47:27;;;;;;;;;;;;;;;23.73;26.77;101029.81;6178355;23;19913;-83
2022/05/04 06:49:53;;;;;;;;;;;;;;;23.50;26.66;101042.47;6178854;23;19927;-82
2022/05/04 06:52:19;;;;;;;;;;;;;;;23.07;27.26;101040.03;6162108;23;20337;-83
2022/05/04 06:54:45;;;;;;;;;;;;;;;22.87;27.38;101038.38;6192998;23;19944;-82
2022/05/04 06:57:10;;;;;;;;;;;;;;;22.54;27.96;101033.34;6179565;23;19923;-81
2022/05/04 06:59:37;;;;;;;;;;;;;;;22.82;27.63;101038.22;6179398;23;19912;-82
2022/05/04 07:02:03;;;;;;;;;;;;;;;22.69;27.90;101038.44;6201326;23;20221;-81
2022/05/04 07:04:29;;;;;;;;;;;;;;;22.73;27.27;101034.16;6177110;23;19912;-82
2022/05/04 07:06:54;;;;;;;;;;;;;;;22.65;28.35;101034.50;6152386;23;20362;-82
2022/05/04 07:09:21;;;;;;;;;;;;;;;23.24;27.19;101048.41;6176876;23;19912;-84
2022/05/04 07:11:46;;;;;;;;;;;;;;;22.73;26.90;101031.41;6176556;23;19991;-82
2022/05/04 07:14:13;;;;;;;;;;;;;;;23.21;27.32;101035.16;6176234;23;19948;-86
2022/05/04 07:16:38;;;;;;;;;;;;;;;22.87;26.28;101043.84;6177659;23;19913;-85
2022/05/04 07:19:04;;;;;;;;;;;;;;;23.35;25.34;101034.69;6176244;23;19965;-83
2022/05/04 07:21:32;;;;;;;;;;;;;;;23.15;26.75;101034.19;6177664;23;19973;-83
2022/05/04 07:23:58;;;;;;;;;;;;;;;23.32;26.50;101029.69;6152627;23;19916;-83
2022/05/04 07:26:23;;;;;;;;;;;;;;;23.80;26.18;101030.56;6178422;23;20042;-82
2022/05/04 07:28:48;;;;;;;;;;;;;;;23.98;26.05;101035.09;6179555;23;20004;-82
2022/05/04 07:31:14;;;;;;;;;;;;;;;23.91;25.73;101035.22;6159752;23;19934;-82
2022/05/04 07:33:39;;;;;;;;;;;;;;;23.83;25.81;101037.47;6201307;23;19944;-83
2022/05/04 07:36:13;;;;;;;;;;;;;;;23.63;25.21;101038.66;6176888;23;19967;-84
2022/05/04 07:38:41;;;;;;;;;;;;;;;23.47;25.04;101053.09;6179260;23;19918;-84
2022/05/04 07:43:53;;;;;;;;;;;;;;;22.71;25.59;101055.47;6174417;23;19927;-84
2022/05/04 07:46:23;;;;;;;;;;;;;;;22.60;26.58;101053.53;6167769;23;20007;-84
2022/05/04 07:48:49;;;;;;;;;;;;;;;22.79;26.19;101057.06;6200744;23;19916;-83
2022/05/04 07:51:16;;;;;;;;;;;;;;;23.01;25.83;101063.72;6174521;23;19912;-84
2022/05/04 07:53:42;;;;;;;;;;;;;;;23.06;25.88;101063.00;6173233;23;19912;-83
2022/05/04 07:56:08;;;;;;;;;;;;;;;23.19;26.28;101062.81;6173839;23;19917;-83
2022/05/04 07:58:36;;;;;;;;;;;;;;;23.30;25.78;101061.19;6177006;23;20010;-82
2022/05/04 08:04:17;;;;;;;;;;;;;;;22.86;26.20;101066.03;6114272;23;19916;-83
2022/05/04 08:06:42;;;;;;;;;;;;;;;22.60;26.60;101064.50;6093549;23;20269;-84
2022/05/04 08:09:09;;;;;;;;;;;;;;;22.60;27.09;101079.03;6090029;23;20369;-80
2022/05/04 08:11:37;;;;;;;;;;;;;;;22.44;27.13;101077.75;6114558;23;19913;-81
2022/05/04 08:14:09;;;;;;;;;;;;;;;22.33;26.81;101078.50;6112248;23;19996;-84
2022/05/04 08:16:39;;;;;;;;;;;;;;;22.59;27.03;101073.75;6173307;23;19919;-82
2022/05/04 08:19:04;;;;;;;;;;;;;;;21.80;27.42;101081.78;6184871;23;20246;-83
2022/05/04 08:21:30;;;;;;;;;;;;;;;21.62;27.24;101083.41;6152438;23;20053;-82
2022/05/04 08:23:59;;;;;;;;;;;;;;;21.48;27.92;101076.38;6176302;23;20009;-81
2022/05/04 08:26:24;;;;;;;;;;;;;;;21.51;28.36;101084.13;6175932;23;19919;-79
2022/05/04 08:28:51;;;;;;;;;;;;;;;22.12;27.67;101074.28;6175805;23;20194;-78
2022/05/04 08:31:19;;;;;;;;;;;;;;;22.06;28.20;101070.56;6178546;23;19912;-80
2022/05/04 08:33:45;;;;;;;;;;;;;;;21.67;29.45;101077.25;6174561;23;19912;-80
2022/05/04 08:36:12;;;;;;;;;;;;;;;21.22;30.76;101071.94;6174313;23;19970;-84
2022/05/04 08:38:43;;;;;;;;;;;;;;;20.38;31.99;101077.38;6151498;23;19947;-80
2022/05/04 08:41:11;;;;;;;;;;;;;;;21.03;30.21;101081.94;6177550;23;19966;-80
2022/05/04 08:43:37;;;;;;;;;;;;;;;19.94;30.59;101078.97;6200784;23;19912;-80
2022/05/04 08:46:06;;;;;;;;;;;;;;;19.08;32.06;101085.25;6151078;23;20331;-79
2022/05/04 08:48:32;;;;;;;;;;;;;;;18.98;32.86;101082.06;6200347;23;19920;-79
2022/05/04 08:51:06;;;;;;;;;;;;;;;19.28;32.68;101078.97;6177357;23;19917;-81
2022/05/04 08:53:32;;;;;;;;;;;;;;;19.60;32.55;101083.59;6176936;23;19934;-81
2022/05/04 08:55:59;;;;;;;;;;;;;;;20.02;31.88;101086.09;6178352;23;20344;-81
2022/05/04 08:58:24;;;;;;;;;;;;;;;19.27;33.28;101088.19;6152515;23;19955;-80
2022/05/04 09:00:49;;;;;;;;;;;;;;;19.14;33.07;101083.56;6175355;23;19912;-82
2022/05/04 09:03:15;;;;;;;;;;;;;;;18.89;33.22;101086.00;6150804;23;19916;-80
2022/05/04 09:05:46;;;;;;;;;;;;;;;18.62;34.40;101085.91;6176855;23;19924;-80
2022/05/04 09:08:13;;;;;;;;;;;;;;;17.95;35.25;101092.03;6177471;23;19923;-85
2022/05/04 09:10:39;;;;;;;;;;;;;;;18.34;35.17;101086.81;6176674;23;19940;-81
2022/05/04 09:13:05;;;;;;;;;;;;;;;18.06;35.76;101086.06;6174897;23;20350;-81
2022/05/04 09:15:36;;;;;;;;;;;;;;;18.29;36.04;101092.03;6178589;23;19974;-88
2022/05/04 09:18:04;;;;;;;;;;;;;;;18.99;35.00;101086.47;6178588;23;19916;-82
2022/05/04 09:20:49;;;;;;;;;;;;;;;18.98;34.51;101091.06;6176721;23;19966;-82
2022/05/04 09:23:30;;;;;;;;;;;;;;;19.93;32.99;101080.03;6176907;23;20056;-83
2022/05/04 09:25:56;;;;;;;;;;;;;;;20.70;31.71;101082.97;6176956;23;20391;-82
2022/05/04 09:28:24;;;;;;;;;;;;;;;22.17;29.63;101081.81;6177689;23;20010;-80
2022/05/04 09:30:54;;;;;;;;;;;;;;;23.99;26.57;101073.28;6179252;23;19969;-82
2022/05/04 09:33:26;;;;;;;;;;;;;;;23.95;26.63;101068.50;6177243;23;20023;-82
2022/05/04 09:35:51;;;;;;;;;;;;;;;21.77;29.27;101079.50;6152893;23;19916;-82
2022/05/04 09:46:37;;;;;;;;;;;;;;;24.37;25.37;101069.19;6176521;23;20458;-81
2022/05/04 09:49:10;;;;;;;;;;;;;;;26.03;23.17;101064.41;6174548;23;19924;-80
2022/05/04 09:51:36;;;;;;;;;;;;;;;26.07;22.99;101067.50;6177020;23;20309;-80
2022/05/04 09:54:16;;;;;;;;;;;;;;;25.84;23.33;101055.59;6178176;23;20023;-85
2022/05/04 09:56:42;;;;;;;;;;;;;;;27.52;21.52;101055.88;6172372;23;20261;-85
2022/05/04 09:59:09;;;;;;;;;;;;;;;27.94;20.43;101055.09;6177558;23;19912;-80
2022/05/04 10:01:34;;;;;;;;;;;;;;;28.80;19.68;101062.09;6175969;23;19950;-80
2022/05/04 10:04:02;;;;;;;;;;;;;;;27.08;21.21;101064.28;6176408;23;20252;-83
2022/05/04 10:06:29;;;;;;;;;;;;;;;25.02;23.01;101056.97;6176274;23;19983;-80
2022/05/04 10:08:54;;;;;;;;;;;;;;;24.21;24.10;101061.69;6172884;23;20341;-84
2022/05/04 10:11:21;;;;;;;;;;;;;;;26.49;21.65;101056.75;6177001;23;20045;-82
2022/05/04 10:13:46;;;;;;;;;;;;;;;26.52;21.43;101061.75;6175936;23;19920;-82
2022/05/04 10:16:11;;;;;;;;;;;;;;;27.61;20.77;101047.94;6176596;23;19934;-81
2022/05/04 10:18:37;;;;;;;;;;;;;;;28.25;20.13;101051.63;6177165;23;19912;-81
2022/05/04 10:21:09;;;;;;;;;;;;;;;27.34;20.62;101053.50;6178764;23;20022;-84
2022/05/04 10:23:36;;;;;;;;;;;;;;;27.96;19.89;101058.41;6177816;23;19912;-81
2022/05/04 10:26:02;;;;;;;;;;;;;;;27.27;21.01;101058.44;6176375;23;20341;-83
2022/05/04 10:28:29;;;;;;;;;;;;;;;26.43;21.61;101052.25;6177443;23;19979;-83
2022/05/04 10:30:59;;;;;;;;;;;;;;;26.15;21.75;101045.00;6177928;23;20031;-81
2022/05/04 10:33:39;;;;;;;;;;;;;;;26.49;21.23;101047.66;6177702;23;19908;-84
2022/05/04 10:36:20;;;;;;;;;;;;;;;25.40;22.58;101040.84;6204453;23;19916;-82
2022/05/04 10:38:47;;;;;;;;;;;;;;;26.63;21.24;101034.34;6152481;23;19909;-81
2022/05/04 10:41:15;;;;;;;;;;;;;;;27.26;20.22;101027.25;6176378;23;19920;-84
2022/05/04 10:43:43;;;;;;;;;;;;;;;27.00;20.92;101033.63;6178795;23;19920;-81
2022/05/04 10:46:10;;;;;;;;;;;;;;;28.35;19.43;101030.41;6179436;23;19913;-81
2022/05/04 10:48:42;;;;;;;;;;;;;;;27.49;20.09;101028.81;6177657;23;19920;-81
2022/05/04 10:51:11;;;;;;;;;;;;;;;27.08;20.87;101036.69;6176740;23;19991;-79
2022/05/04 10:53:38;;;;;;;;;;;;;;;28.06;19.62;101037.47;6175518;23;19916;-80
2022/05/04 10:56:08;;;;;;;;;;;;;;;26.88;20.81;101031.00;6150556;23;19917;-81
2022/05/04 10:58:44;;;;;;;;;;;;;;;27.05;20.73;101031.72;6178935;23;20291;-79
2022/05/04 11:01:30;;;;;;;;;;;;;;;28.13;19.27;101032.53;6177360;23;19987;-84
2022/05/04 11:04:04;;;;;;;;;;;;;;;27.66;20.09;101044.38;6177857;23;19912;-83
2022/05/04 11:06:30;;;;;;;;;;;;;;;23.99;23.89;101034.84;6186319;23;19912;-84
2022/05/04 11:08:57;;;;;;;;;;;;;;;22.41;26.25;101042.59;6180088;23;19958;-82
2022/05/04 11:11:25;;;;;;;;;;;;;;;21.92;27.84;101053.44;6178811;23;19917;-81
2022/05/04 11:13:51;;;;;;;;;;;;;;;21.36;28.81;101053.53;6202037;23;20356;-83
2022/05/04 11:16:21;;;;;;;;;;;;;;;20.82;29.61;101047.59;6181353;23;19912;-83
2022/05/04 11:18:53;;;;;;;;;;;;;;;20.80;30.21;101046.97;6177303;23;19935;-84
2022/05/04 11:21:20;;;;;;;;;;;;;;;19.90;31.74;101053.19;6178996;23;19912;-82
2022/05/04 11:23:49;;;;;;;;;;;;;;;21.48;29.30;101051.75;6201881;23;19920;-83
2022/05/04 11:26:46;;;;;;;;;;;;;;;22.31;28.39;101058.72;6178918;23;19912;-82
2022/05/04 11:29:26;;;;;;;;;;;;;;;22.34;28.72;101044.59;6176757;23;19987;-82
2022/05/04 11:31:54;;;;;;;;;;;;;;;21.27;30.48;101044.75;6199983;23;19916;-82
2022/05/04 11:34:23;;;;;;;;;;;;;;;21.72;29.22;101044.59;6178645;23;19951;-81
2022/05/04 11:36:49;;;;;;;;;;;;;;;21.88;29.85;101040.44;6152833;23;20021;-81
2022/05/04 11:39:16;;;;;;;;;;;;;;;21.35;30.78;101043.63;6200334;23;19919;-85
2022/05/04 11:41:43;;;;;;;;;;;;;;;20.74;32.16;101043.19;6177682;23;19916;-81
2022/05/04 11:44:10;;;;;;;;;;;;;;;20.29;33.29;101054.09;6176574;23;20368;-80
2022/05/04 11:46:37;;;;;;;;;;;;;;;20.26;33.95;101043.63;6178437;23;19913;-80
2022/05/04 11:49:03;;;;;;;;;;;;;;;20.38;33.89;101049.25;6177422;23;19973;-82
2022/05/04 11:51:30;;;;;;;;;;;;;;;20.23;34.08;101049.53;6151036;23;20282;-82
2022/05/04 11:53:57;;;;;;;;;;;;;;;19.43;36.79;101048.78;6177436;23;20413;-83
2022/05/04 11:56:22;;;;;;;;;;;;;;;19.74;36.47;101040.00;6177313;23;19912;-82
2022/05/04 11:58:50;;;;;;;;;;;;;;;19.58;37.32;101042.06;6176057;23;19916;-83
2022/05/04 12:01:16;;;;;;;;;;;;;;;19.14;38.11;101048.13;6151157;23;20048;-85
2022/05/04 12:03:42;;;;;;;;;;;;;;;19.40;38.38;101047.31;6177192;23;19955;-84
2022/05/04 12:06:11;;;;;;;;;;;;;;;19.93;37.68;101046.44;6199779;23;19909;-82
2022/05/04 12:08:36;;;;;;;;;;;;;;;19.97;36.99;101034.91;6176374;23;20416;-83
2022/05/04 12:11:02;;;;;;;;;;;;;;;20.15;36.02;101028.72;6176446;23;19972;-82
2022/05/04 12:13:28;;;;;;;;;;;;;;;19.50;36.52;101023.19;6151779;23;19912;-82
2022/05/04 12:15:55;;;;;;;;;;;;;;;19.42;36.57;101020.66;6151992;23;19924;-82
2022/05/04 12:18:25;;;;;;;;;;;;;;;18.92;37.47;101021.06;6151718;23;19916;-82
2022/05/04 12:20:52;;;;;;;;;;;;;;;18.43;37.56;101021.34;6151807;23;20008;-81
2022/05/04 12:23:18;;;;;;;;;;;;;;;18.58;37.77;101029.34;6152363;23;19916;-81
2022/05/04 12:25:45;;;;;;;;;;;;;;;19.34;36.56;101029.91;6178422;23;19920;-83
2022/05/04 12:28:11;;;;;;;;;;;;;;;19.87;36.13;101029.03;6178913;23;19916;-81
2022/05/04 12:33:23;;;;;;;;;;;;;;;19.69;38.01;101028.84;6176727;23;19919;-79
2022/05/04 12:35:50;;;;;;;;;;;;;;;19.72;38.67;101020.25;6176219;23;19912;-83
2022/05/04 12:38:19;;;;;;;;;;;;;;;20.09;36.76;101020.56;6175019;23;20238;-82
2022/05/04 12:40:45;;;;;;;;;;;;;;;19.83;37.05;101014.16;6175308;23;19912;-82
2022/05/04 12:43:10;;;;;;;;;;;;;;;18.90;38.09;101022.34;6177410;23;19921;-80
2022/05/04 12:45:36;;;;;;;;;;;;;;;18.11;40.15;101024.53;6174465;23;19921;-81
2022/05/04 12:48:08;;;;;;;;;;;;;;;18.27;40.61;101020.63;6173414;23;19912;-83
2022/05/04 12:50:33;;;;;;;;;;;;;;;18.66;40.70;101023.69;6177419;23;19913;-82
2022/05/04 12:53:03;;;;;;;;;;;;;;;18.20;40.79;101025.22;6175203;23;19912;-81
2022/05/04 12:58:35;;;;;;;;;;;;;;;17.35;39.31;101024.44;6176664;23;20003;-80
2022/05/04 13:01:01;;;;;;;;;;;;;;;17.54;38.94;101020.19;6177054;23;19917;-81
2022/05/04 13:03:28;;;;;;;;;;;;;;;17.53;40.82;101032.09;6175793;23;19916;-79
2022/05/04 13:05:54;;;;;;;;;;;;;;;17.39;39.80;101031.16;6151428;23;20053;-79
2022/05/04 13:08:19;;;;;;;;;;;;;;;17.56;39.20;101031.72;6150906;23;20333;-79
2022/05/04 13:10:48;;;;;;;;;;;;;;;17.57;40.22;101027.13;6176538;23;19991;-79
2022/05/04 13:13:25;;;;;;;;;;;;;;;17.50;38.29;101027.06;6175282;23;19912;-82
2022/05/04 13:15:51;;;;;;;;;;;;;;;17.24;40.74;101017.66;6176156;23;19924;-78
2022/05/04 13:18:20;;;;;;;;;;;;;;;17.38;39.46;101026.75;6174510;23;19972;-80